sensor_id;sensor_type;location;lat;lon;timestamp;P1;durP1;ratioP1;P2;durP2;ratioP2
82163;SDS011;71736;38.734;-9.138;2023-11-19T00:00:28;15.10;;;10.70;;
82163;SDS011;71736;38.734;-9.138;2023-11-19T00:02:54;16.30;;;10.80;;
82163;SDS011;71736;38.734;-9.138;2023-11-19T00:05:19;16.00;;;10.30;;
82163;SDS011;71736;38.734;-9.138;2023-11-19T00:07:45;18.20;;;11.20;;
82163;SDS011;71736;38.734;-9.138;2023-11-19T00:10:12;15.90;;;10.50;;
82163;SDS011;71736;38.734;-9.138;2023-11-19T00:12:39;16.70;;;10.10;;
82163;SDS011;71736;38.734;-9.138;2023-11-19T00:15:09;15.60;;;9.90;;
82163;SDS011;71736;38.734;-9.138;2023-11-19T00:17:40;15.50;;;10.80;;
82163;SDS011;71736;38.734;-9.138;2023-11-19T00:20:10;17.70;;;10.70;;
82163;SDS011;71736;38.734;-9.138;2023-11-19T00:22:40;16.10;;;10.50;;
82163;SDS011;71736;38.734;-9.138;2023-11-19T00:25:07;17.40;;;10.40;;
82163;SDS011;71736;38.734;-9.138;2023-11-19T00:27:33;15.30;;;10.20;;
82163;SDS011;71736;38.734;-9.138;2023-11-19T00:29:58;14.70;;;9.60;;
82163;SDS011;71736;38.734;-9.138;2023-11-19T00:32:24;14.00;;;9.80;;
82163;SDS011;71736;38.734;-9.138;2023-11-19T00:34:49;13.90;;;9.20;;
82163;SDS011;71736;38.734;-9.138;2023-11-19T00:37:15;16.80;;;10.70;;
82163;SDS011;71736;38.734;-9.138;2023-11-19T00:39:41;13.30;;;9.20;;
82163;SDS011;71736;38.734;-9.138;2023-11-19T00:42:08;12.90;;;9.30;;
82163;SDS011;71736;38.734;-9.138;2023-11-19T00:44:35;14.80;;;9.50;;
82163;SDS011;71736;38.734;-9.138;2023-11-19T00:47:01;15.70;;;9.20;;
82163;SDS011;71736;38.734;-9.138;2023-11-19T00:49:27;13.00;;;8.80;;
82163;SDS011;71736;38.734;-9.138;2023-11-19T00:51:52;14.60;;;9.90;;
82163;SDS011;71736;38.734;-9.138;2023-11-19T00:54:18;14.10;;;10.20;;
82163;SDS011;71736;38.734;-9.138;2023-11-19T00:56:43;14.80;;;10.10;;
82163;SDS011;71736;38.734;-9.138;2023-11-19T00:59:10;14.40;;;9.20;;
82163;SDS011;71736;38.734;-9.138;2023-11-19T01:01:35;14.40;;;10.20;;
82163;SDS011;71736;38.734;-9.138;2023-11-19T01:04:01;14.40;;;9.40;;
82163;SDS011;71736;38.734;-9.138;2023-11-19T01:06:30;14.20;;;9.80;;
82163;SDS011;71736;38.734;-9.138;2023-11-19T01:08:56;15.60;;;10.20;;
82163;SDS011;71736;38.734;-9.138;2023-11-19T01:11:22;13.30;;;8.90;;
82163;SDS011;71736;38.734;-9.138;2023-11-19T01:13:48;13.80;;;9.10;;
82163;SDS011;71736;38.734;-9.138;2023-11-19T01:16:15;13.00;;;9.00;;
82163;SDS011;71736;38.734;-9.138;2023-11-19T01:18:40;14.40;;;9.90;;
82163;SDS011;71736;38.734;-9.138;2023-11-19T01:21:06;13.60;;;9.40;;
82163;SDS011;71736;38.734;-9.138;2023-11-19T01:23:31;15.50;;;10.10;;
82163;SDS011;71736;38.734;-9.138;2023-11-19T01:25:58;14.00;;;9.70;;
82163;SDS011;71736;38.734;-9.138;2023-11-19T01:28:23;13.30;;;8.80;;
82163;SDS011;71736;38.734;-9.138;2023-11-19T01:30:52;12.20;;;8.50;;
82163;SDS011;71736;38.734;-9.138;2023-11-19T01:33:18;11.50;;;8.60;;
82163;SDS011;71736;38.734;-9.138;2023-11-19T01:35:44;12.70;;;9.70;;
82163;SDS011;71736;38.734;-9.138;2023-11-19T01:38:09;14.70;;;9.10;;
82163;SDS011;71736;38.734;-9.138;2023-11-19T01:40:35;12.40;;;9.20;;
82163;SDS011;71736;38.734;-9.138;2023-11-19T01:43:02;13.20;;;8.90;;
82163;SDS011;71736;38.734;-9.138;2023-11-19T01:45:30;12.20;;;8.90;;
82163;SDS011;71736;38.734;-9.138;2023-11-19T01:50:25;11.70;;;8.20;;
82163;SDS011;71736;38.734;-9.138;2023-11-19T01:52:54;13.50;;;8.60;;
82163;SDS011;71736;38.734;-9.138;2023-11-19T01:55:23;14.10;;;9.10;;
82163;SDS011;71736;38.734;-9.138;2023-11-19T01:57:50;14.20;;;11.30;;
82163;SDS011;71736;38.734;-9.138;2023-11-19T02:00:16;12.90;;;9.60;;
82163;SDS011;71736;38.734;-9.138;2023-11-19T02:02:44;11.80;;;9.20;;
82163;SDS011;71736;38.734;-9.138;2023-11-19T02:05:11;11.80;;;8.50;;
82163;SDS011;71736;38.734;-9.138;2023-11-19T02:10:03;13.40;;;8.40;;
82163;SDS011;71736;38.734;-9.138;2023-11-19T02:12:31;13.70;;;8.50;;
82163;SDS011;71736;38.734;-9.138;2023-11-19T02:15:01;11.90;;;8.10;;
82163;SDS011;71736;38.734;-9.138;2023-11-19T02:17:28;12.70;;;8.00;;
82163;SDS011;71736;38.734;-9.138;2023-11-19T02:19:56;11.20;;;8.30;;
82163;SDS011;71736;38.734;-9.138;2023-11-19T02:22:22;11.60;;;8.60;;
82163;SDS011;71736;38.734;-9.138;2023-11-19T02:24:49;11.60;;;8.30;;
82163;SDS011;71736;38.734;-9.138;2023-11-19T02:28:02;12.90;;;7.80;;
82163;SDS011;71736;38.734;-9.138;2023-11-19T02:30:16;12.00;;;8.10;;
82163;SDS011;71736;38.734;-9.138;2023-11-19T02:32:42;11.70;;;7.80;;
82163;SDS011;71736;38.734;-9.138;2023-11-19T02:35:08;11.50;;;8.20;;
82163;SDS011;71736;38.734;-9.138;2023-11-19T02:37:37;13.20;;;8.90;;
82163;SDS011;71736;38.734;-9.138;2023-11-19T02:40:04;11.50;;;8.70;;
82163;SDS011;71736;38.734;-9.138;2023-11-19T02:42:33;11.30;;;8.30;;
82163;SDS011;71736;38.734;-9.138;2023-11-19T02:44:59;11.90;;;7.60;;
82163;SDS011;71736;38.734;-9.138;2023-11-19T02:47:24;10.70;;;8.20;;
82163;SDS011;71736;38.734;-9.138;2023-11-19T02:49:50;11.80;;;7.80;;
82163;SDS011;71736;38.734;-9.138;2023-11-19T02:52:15;11.60;;;8.00;;
82163;SDS011;71736;38.734;-9.138;2023-11-19T02:54:42;12.80;;;9.10;;
82163;SDS011;71736;38.734;-9.138;2023-11-19T02:57:08;13.70;;;8.60;;
82163;SDS011;71736;38.734;-9.138;2023-11-19T02:59:38;13.00;;;9.00;;
82163;SDS011;71736;38.734;-9.138;2023-11-19T03:02:08;12.60;;;8.20;;
82163;SDS011;71736;38.734;-9.138;2023-11-19T03:04:39;11.10;;;8.00;;
82163;SDS011;71736;38.734;-9.138;2023-11-19T03:07:05;14.00;;;8.40;;
82163;SDS011;71736;38.734;-9.138;2023-11-19T03:09:32;11.40;;;8.30;;
82163;SDS011;71736;38.734;-9.138;2023-11-19T03:11:59;11.90;;;8.00;;
82163;SDS011;71736;38.734;-9.138;2023-11-19T03:14:24;10.90;;;8.30;;
82163;SDS011;71736;38.734;-9.138;2023-11-19T03:16:50;13.20;;;8.70;;
82163;SDS011;71736;38.734;-9.138;2023-11-19T03:19:16;13.60;;;9.10;;
82163;SDS011;71736;38.734;-9.138;2023-11-19T03:21:41;11.00;;;7.60;;
82163;SDS011;71736;38.734;-9.138;2023-11-19T03:24:07;11.40;;;8.20;;
82163;SDS011;71736;38.734;-9.138;2023-11-19T03:26:33;14.60;;;7.80;;
82163;SDS011;71736;38.734;-9.138;2023-11-19T03:28:59;12.70;;;8.60;;
82163;SDS011;71736;38.734;-9.138;2023-11-19T03:31:25;11.30;;;8.00;;
82163;SDS011;71736;38.734;-9.138;2023-11-19T03:33:50;13.80;;;9.20;;
82163;SDS011;71736;38.734;-9.138;2023-11-19T03:36:16;13.50;;;9.30;;
82163;SDS011;71736;38.734;-9.138;2023-11-19T03:38:42;13.10;;;8.80;;
82163;SDS011;71736;38.734;-9.138;2023-11-19T03:41:11;14.90;;;9.90;;
82163;SDS011;71736;38.734;-9.138;2023-11-19T03:43:37;15.10;;;9.20;;
82163;SDS011;71736;38.734;-9.138;2023-11-19T03:46:03;15.60;;;9.40;;
82163;SDS011;71736;38.734;-9.138;2023-11-19T03:48:30;17.50;;;10.30;;
82163;SDS011;71736;38.734;-9.138;2023-11-19T03:50:56;16.40;;;9.80;;
82163;SDS011;71736;38.734;-9.138;2023-11-19T03:53:22;14.70;;;9.20;;
82163;SDS011;71736;38.734;-9.138;2023-11-19T03:55:49;15.50;;;9.50;;
82163;SDS011;71736;38.734;-9.138;2023-11-19T03:58:15;15.80;;;10.40;;
82163;SDS011;71736;38.734;-9.138;2023-11-19T04:00:40;16.20;;;10.10;;
82163;SDS011;71736;38.734;-9.138;2023-11-19T04:03:06;16.90;;;10.10;;
82163;SDS011;71736;38.734;-9.138;2023-11-19T04:05:31;14.90;;;10.30;;
82163;SDS011;71736;38.734;-9.138;2023-11-19T04:07:57;17.70;;;11.50;;
82163;SDS011;71736;38.734;-9.138;2023-11-19T04:10:22;19.10;;;10.70;;
82163;SDS011;71736;38.734;-9.138;2023-11-19T04:12:48;16.40;;;9.90;;
82163;SDS011;71736;38.734;-9.138;2023-11-19T04:15:14;18.20;;;11.20;;
82163;SDS011;71736;38.734;-9.138;2023-11-19T04:17:40;15.30;;;9.40;;
82163;SDS011;71736;38.734;-9.138;2023-11-19T04:20:06;14.20;;;9.00;;
82163;SDS011;71736;38.734;-9.138;2023-11-19T04:22:36;14.70;;;9.60;;
82163;SDS011;71736;38.734;-9.138;2023-11-19T04:25:01;15.70;;;9.80;;
82163;SDS011;71736;38.734;-9.138;2023-11-19T04:27:27;17.80;;;10.50;;
82163;SDS011;71736;38.734;-9.138;2023-11-19T04:29:52;14.90;;;9.40;;
82163;SDS011;71736;38.734;-9.138;2023-11-19T04:32:18;14.40;;;9.70;;
82163;SDS011;71736;38.734;-9.138;2023-11-19T04:34:44;11.80;;;8.40;;
82163;SDS011;71736;38.734;-9.138;2023-11-19T04:37:09;11.80;;;8.20;;
82163;SDS011;71736;38.734;-9.138;2023-11-19T04:39:35;12.00;;;8.00;;
82163;SDS011;71736;38.734;-9.138;2023-11-19T04:42:01;11.60;;;7.90;;
82163;SDS011;71736;38.734;-9.138;2023-11-19T04:44:26;12.90;;;8.50;;
82163;SDS011;71736;38.734;-9.138;2023-11-19T04:46:52;11.80;;;8.60;;
82163;SDS011;71736;38.734;-9.138;2023-11-19T04:49:17;12.80;;;8.60;;
82163;SDS011;71736;38.734;-9.138;2023-11-19T04:51:44;12.00;;;8.10;;
82163;SDS011;71736;38.734;-9.138;2023-11-19T04:54:12;12.50;;;8.50;;
82163;SDS011;71736;38.734;-9.138;2023-11-19T04:56:38;13.90;;;9.10;;
82163;SDS011;71736;38.734;-9.138;2023-11-19T04:59:04;13.20;;;8.20;;
82163;SDS011;71736;38.734;-9.138;2023-11-19T05:01:34;12.90;;;8.40;;
82163;SDS011;71736;38.734;-9.138;2023-11-19T05:04:00;13.60;;;8.60;;
82163;SDS011;71736;38.734;-9.138;2023-11-19T05:06:29;20.00;;;9.20;;
82163;SDS011;71736;38.734;-9.138;2023-11-19T05:08:56;14.00;;;9.20;;
82163;SDS011;71736;38.734;-9.138;2023-11-19T05:11:26;15.50;;;8.70;;
82163;SDS011;71736;38.734;-9.138;2023-11-19T05:13:53;19.60;;;10.40;;
82163;SDS011;71736;38.734;-9.138;2023-11-19T05:16:19;17.50;;;9.70;;
82163;SDS011;71736;38.734;-9.138;2023-11-19T05:18:46;17.40;;;9.60;;
82163;SDS011;71736;38.734;-9.138;2023-11-19T05:21:11;20.10;;;9.50;;
82163;SDS011;71736;38.734;-9.138;2023-11-19T05:23:37;16.70;;;10.20;;
82163;SDS011;71736;38.734;-9.138;2023-11-19T05:26:04;17.50;;;10.20;;
82163;SDS011;71736;38.734;-9.138;2023-11-19T05:28:30;20.50;;;10.90;;
82163;SDS011;71736;38.734;-9.138;2023-11-19T05:30:55;20.30;;;11.00;;
82163;SDS011;71736;38.734;-9.138;2023-11-19T05:33:21;21.40;;;10.70;;
82163;SDS011;71736;38.734;-9.138;2023-11-19T05:35:47;16.20;;;9.80;;
82163;SDS011;71736;38.734;-9.138;2023-11-19T05:38:12;17.70;;;10.90;;
82163;SDS011;71736;38.734;-9.138;2023-11-19T05:40:38;15.70;;;9.00;;
82163;SDS011;71736;38.734;-9.138;2023-11-19T05:43:04;15.80;;;9.40;;
82163;SDS011;71736;38.734;-9.138;2023-11-19T05:45:30;15.20;;;9.50;;
82163;SDS011;71736;38.734;-9.138;2023-11-19T05:47:56;15.20;;;9.50;;
82163;SDS011;71736;38.734;-9.138;2023-11-19T05:50:22;13.90;;;8.60;;
82163;SDS011;71736;38.734;-9.138;2023-11-19T05:52:48;13.50;;;8.50;;
82163;SDS011;71736;38.734;-9.138;2023-11-19T05:55:13;14.20;;;8.50;;
82163;SDS011;71736;38.734;-9.138;2023-11-19T05:57:39;12.40;;;8.30;;
82163;SDS011;71736;38.734;-9.138;2023-11-19T06:00:05;13.10;;;8.00;;
82163;SDS011;71736;38.734;-9.138;2023-11-19T06:02:33;11.90;;;7.90;;
82163;SDS011;71736;38.734;-9.138;2023-11-19T06:04:59;13.40;;;8.30;;
82163;SDS011;71736;38.734;-9.138;2023-11-19T06:07:26;12.00;;;8.40;;
82163;SDS011;71736;38.734;-9.138;2023-11-19T06:09:52;15.30;;;8.80;;
82163;SDS011;71736;38.734;-9.138;2023-11-19T06:12:17;11.20;;;8.00;;
82163;SDS011;71736;38.734;-9.138;2023-11-19T06:14:43;13.00;;;8.70;;
82163;SDS011;71736;38.734;-9.138;2023-11-19T06:17:08;14.00;;;9.00;;
82163;SDS011;71736;38.734;-9.138;2023-11-19T06:19:36;14.40;;;8.10;;
82163;SDS011;71736;38.734;-9.138;2023-11-19T06:22:03;12.80;;;7.90;;
82163;SDS011;71736;38.734;-9.138;2023-11-19T06:24:29;13.40;;;8.90;;
82163;SDS011;71736;38.734;-9.138;2023-11-19T06:26:54;13.10;;;8.40;;
82163;SDS011;71736;38.734;-9.138;2023-11-19T06:29:20;13.70;;;8.70;;
82163;SDS011;71736;38.734;-9.138;2023-11-19T06:31:45;14.10;;;9.20;;
82163;SDS011;71736;38.734;-9.138;2023-11-19T06:34:13;13.50;;;8.80;;
82163;SDS011;71736;38.734;-9.138;2023-11-19T06:36:39;14.80;;;8.70;;
82163;SDS011;71736;38.734;-9.138;2023-11-19T06:39:05;14.90;;;8.60;;
82163;SDS011;71736;38.734;-9.138;2023-11-19T06:41:31;14.80;;;9.60;;
82163;SDS011;71736;38.734;-9.138;2023-11-19T06:43:56;13.50;;;8.70;;
82163;SDS011;71736;38.734;-9.138;2023-11-19T06:46:22;19.40;;;10.60;;
82163;SDS011;71736;38.734;-9.138;2023-11-19T06:48:47;18.20;;;10.30;;
82163;SDS011;71736;38.734;-9.138;2023-11-19T06:51:13;14.90;;;8.60;;
82163;SDS011;71736;38.734;-9.138;2023-11-19T06:53:38;13.70;;;8.50;;
82163;SDS011;71736;38.734;-9.138;2023-11-19T07:01:13;15.20;;;8.20;;
82163;SDS011;71736;38.734;-9.138;2023-11-19T07:03:38;16.20;;;9.50;;
82163;SDS011;71736;38.734;-9.138;2023-11-19T07:06:04;14.20;;;8.90;;
82163;SDS011;71736;38.734;-9.138;2023-11-19T07:08:30;12.40;;;7.70;;
82163;SDS011;71736;38.734;-9.138;2023-11-19T07:10:56;14.10;;;8.60;;
82163;SDS011;71736;38.734;-9.138;2023-11-19T07:13:21;13.90;;;8.00;;
82163;SDS011;71736;38.734;-9.138;2023-11-19T07:15:47;15.10;;;8.50;;
82163;SDS011;71736;38.734;-9.138;2023-11-19T07:18:13;12.80;;;8.20;;
82163;SDS011;71736;38.734;-9.138;2023-11-19T07:20:39;12.80;;;8.30;;
82163;SDS011;71736;38.734;-9.138;2023-11-19T07:23:05;16.60;;;10.10;;
82163;SDS011;71736;38.734;-9.138;2023-11-19T07:25:31;14.00;;;8.70;;
82163;SDS011;71736;38.734;-9.138;2023-11-19T07:27:56;14.10;;;8.50;;
82163;SDS011;71736;38.734;-9.138;2023-11-19T07:30:22;14.10;;;8.10;;
82163;SDS011;71736;38.734;-9.138;2023-11-19T07:32:47;12.30;;;7.40;;
82163;SDS011;71736;38.734;-9.138;2023-11-19T07:35:13;12.80;;;8.30;;
82163;SDS011;71736;38.734;-9.138;2023-11-19T07:37:41;12.70;;;8.60;;
82163;SDS011;71736;38.734;-9.138;2023-11-19T07:40:07;13.10;;;8.40;;
82163;SDS011;71736;38.734;-9.138;2023-11-19T07:42:33;12.70;;;8.30;;
82163;SDS011;71736;38.734;-9.138;2023-11-19T07:44:59;13.80;;;9.10;;
82163;SDS011;71736;38.734;-9.138;2023-11-19T07:47:24;13.80;;;9.00;;
82163;SDS011;71736;38.734;-9.138;2023-11-19T07:49:50;15.90;;;9.70;;
82163;SDS011;71736;38.734;-9.138;2023-11-19T07:52:16;14.80;;;9.20;;
82163;SDS011;71736;38.734;-9.138;2023-11-19T07:54:41;14.80;;;8.80;;
82163;SDS011;71736;38.734;-9.138;2023-11-19T07:57:07;14.20;;;8.70;;
82163;SDS011;71736;38.734;-9.138;2023-11-19T07:59:32;14.30;;;8.90;;
82163;SDS011;71736;38.734;-9.138;2023-11-19T08:01:58;15.00;;;9.20;;
82163;SDS011;71736;38.734;-9.138;2023-11-19T08:04:23;15.40;;;9.80;;
82163;SDS011;71736;38.734;-9.138;2023-11-19T08:06:49;13.70;;;8.40;;
82163;SDS011;71736;38.734;-9.138;2023-11-19T08:09:14;12.20;;;8.40;;
82163;SDS011;71736;38.734;-9.138;2023-11-19T08:11:43;16.20;;;10.00;;
82163;SDS011;71736;38.734;-9.138;2023-11-19T08:14:08;12.90;;;8.00;;
82163;SDS011;71736;38.734;-9.138;2023-11-19T08:16:34;15.60;;;9.10;;
82163;SDS011;71736;38.734;-9.138;2023-11-19T08:19:01;14.60;;;8.50;;
82163;SDS011;71736;38.734;-9.138;2023-11-19T08:23:53;16.50;;;8.90;;
82163;SDS011;71736;38.734;-9.138;2023-11-19T08:26:19;15.60;;;9.60;;
82163;SDS011;71736;38.734;-9.138;2023-11-19T08:28:44;16.30;;;8.70;;
82163;SDS011;71736;38.734;-9.138;2023-11-19T08:31:10;15.80;;;8.90;;
82163;SDS011;71736;38.734;-9.138;2023-11-19T08:33:36;16.60;;;9.90;;
82163;SDS011;71736;38.734;-9.138;2023-11-19T08:36:01;16.70;;;8.80;;
82163;SDS011;71736;38.734;-9.138;2023-11-19T08:38:29;17.30;;;8.90;;
82163;SDS011;71736;38.734;-9.138;2023-11-19T08:40:54;17.10;;;10.40;;
82163;SDS011;71736;38.734;-9.138;2023-11-19T08:43:25;17.00;;;9.50;;
82163;SDS011;71736;38.734;-9.138;2023-11-19T08:45:51;16.50;;;10.20;;
82163;SDS011;71736;38.734;-9.138;2023-11-19T08:48:16;19.10;;;10.20;;
82163;SDS011;71736;38.734;-9.138;2023-11-19T08:50:42;17.40;;;10.40;;
82163;SDS011;71736;38.734;-9.138;2023-11-19T08:53:07;16.60;;;9.40;;
82163;SDS011;71736;38.734;-9.138;2023-11-19T08:55:33;18.30;;;9.90;;
82163;SDS011;71736;38.734;-9.138;2023-11-19T08:57:58;15.60;;;8.90;;
82163;SDS011;71736;38.734;-9.138;2023-11-19T09:00:24;15.20;;;9.10;;
82163;SDS011;71736;38.734;-9.138;2023-11-19T09:02:49;16.60;;;9.20;;
82163;SDS011;71736;38.734;-9.138;2023-11-19T09:05:15;14.80;;;9.20;;
82163;SDS011;71736;38.734;-9.138;2023-11-19T09:07:40;17.00;;;10.10;;
82163;SDS011;71736;38.734;-9.138;2023-11-19T09:10:06;15.60;;;8.30;;
82163;SDS011;71736;38.734;-9.138;2023-11-19T09:12:33;17.50;;;9.30;;
82163;SDS011;71736;38.734;-9.138;2023-11-19T09:15:00;15.00;;;9.10;;
82163;SDS011;71736;38.734;-9.138;2023-11-19T09:17:25;16.30;;;8.30;;
82163;SDS011;71736;38.734;-9.138;2023-11-19T09:19:51;16.50;;;9.00;;
82163;SDS011;71736;38.734;-9.138;2023-11-19T09:22:16;16.90;;;9.40;;
82163;SDS011;71736;38.734;-9.138;2023-11-19T09:24:42;14.40;;;8.60;;
82163;SDS011;71736;38.734;-9.138;2023-11-19T09:27:09;14.00;;;8.60;;
82163;SDS011;71736;38.734;-9.138;2023-11-19T09:29:35;13.40;;;8.40;;
82163;SDS011;71736;38.734;-9.138;2023-11-19T09:32:01;13.50;;;8.50;;
82163;SDS011;71736;38.734;-9.138;2023-11-19T09:34:27;16.60;;;9.50;;
82163;SDS011;71736;38.734;-9.138;2023-11-19T09:36:53;12.60;;;8.10;;
82163;SDS011;71736;38.734;-9.138;2023-11-19T09:39:18;12.30;;;8.40;;
82163;SDS011;71736;38.734;-9.138;2023-11-19T09:41:45;14.90;;;7.90;;
82163;SDS011;71736;38.734;-9.138;2023-11-19T09:44:11;12.60;;;8.20;;
82163;SDS011;71736;38.734;-9.138;2023-11-19T09:46:41;12.20;;;7.20;;
82163;SDS011;71736;38.734;-9.138;2023-11-19T09:49:06;11.20;;;6.60;;
82163;SDS011;71736;38.734;-9.138;2023-11-19T09:51:34;9.90;;;7.00;;
82163;SDS011;71736;38.734;-9.138;2023-11-19T09:56:26;11.30;;;7.20;;
82163;SDS011;71736;38.734;-9.138;2023-11-19T09:58:54;9.40;;;6.80;;
82163;SDS011;71736;38.734;-9.138;2023-11-19T10:01:20;11.50;;;7.20;;
82163;SDS011;71736;38.734;-9.138;2023-11-19T10:03:47;12.20;;;7.30;;
82163;SDS011;71736;38.734;-9.138;2023-11-19T10:06:12;10.90;;;7.20;;
82163;SDS011;71736;38.734;-9.138;2023-11-19T10:08:40;14.10;;;9.50;;
82163;SDS011;71736;38.734;-9.138;2023-11-19T10:11:06;10.70;;;7.60;;
82163;SDS011;71736;38.734;-9.138;2023-11-19T10:13:36;10.80;;;7.30;;
82163;SDS011;71736;38.734;-9.138;2023-11-19T10:16:08;12.10;;;8.30;;
82163;SDS011;71736;38.734;-9.138;2023-11-19T10:18:36;13.70;;;8.50;;
82163;SDS011;71736;38.734;-9.138;2023-11-19T10:21:05;9.20;;;6.30;;
82163;SDS011;71736;38.734;-9.138;2023-11-19T10:23:31;11.70;;;7.20;;
82163;SDS011;71736;38.734;-9.138;2023-11-19T10:26:10;12.30;;;7.60;;
82163;SDS011;71736;38.734;-9.138;2023-11-19T10:28:39;11.20;;;6.80;;
82163;SDS011;71736;38.734;-9.138;2023-11-19T10:31:11;11.30;;;7.50;;
82163;SDS011;71736;38.734;-9.138;2023-11-19T10:33:39;12.70;;;8.30;;
82163;SDS011;71736;38.734;-9.138;2023-11-19T10:36:05;12.30;;;8.00;;
82163;SDS011;71736;38.734;-9.138;2023-11-19T10:38:32;11.60;;;6.80;;
82163;SDS011;71736;38.734;-9.138;2023-11-19T10:40:57;11.80;;;7.70;;
82163;SDS011;71736;38.734;-9.138;2023-11-19T10:43:24;12.90;;;8.00;;
82163;SDS011;71736;38.734;-9.138;2023-11-19T10:45:50;12.00;;;7.90;;
82163;SDS011;71736;38.734;-9.138;2023-11-19T10:48:17;12.80;;;8.50;;
82163;SDS011;71736;38.734;-9.138;2023-11-19T10:50:43;12.40;;;8.50;;
82163;SDS011;71736;38.734;-9.138;2023-11-19T10:53:11;14.60;;;9.40;;
82163;SDS011;71736;38.734;-9.138;2023-11-19T10:55:41;12.50;;;8.40;;
82163;SDS011;71736;38.734;-9.138;2023-11-19T10:58:07;13.70;;;7.90;;
82163;SDS011;71736;38.734;-9.138;2023-11-19T11:03:10;11.10;;;8.30;;
82163;SDS011;71736;38.734;-9.138;2023-11-19T11:05:42;11.30;;;7.60;;
82163;SDS011;71736;38.734;-9.138;2023-11-19T11:08:09;12.40;;;7.60;;
82163;SDS011;71736;38.734;-9.138;2023-11-19T11:10:36;12.20;;;8.60;;
82163;SDS011;71736;38.734;-9.138;2023-11-19T11:13:05;12.20;;;8.20;;
82163;SDS011;71736;38.734;-9.138;2023-11-19T11:15:31;11.30;;;8.30;;
82163;SDS011;71736;38.734;-9.138;2023-11-19T11:18:00;11.40;;;7.80;;
82163;SDS011;71736;38.734;-9.138;2023-11-19T11:20:27;13.80;;;8.30;;
82163;SDS011;71736;38.734;-9.138;2023-11-19T11:23:01;12.70;;;8.30;;
82163;SDS011;71736;38.734;-9.138;2023-11-19T11:38:06;13.20;;;8.60;;
82163;SDS011;71736;38.734;-9.138;2023-11-19T11:40:33;11.20;;;7.90;;
82163;SDS011;71736;38.734;-9.138;2023-11-19T11:42:58;11.70;;;8.60;;
82163;SDS011;71736;38.734;-9.138;2023-11-19T11:45:37;13.70;;;8.60;;
82163;SDS011;71736;38.734;-9.138;2023-11-19T11:48:10;12.80;;;8.90;;
82163;SDS011;71736;38.734;-9.138;2023-11-19T11:50:47;14.70;;;10.10;;
82163;SDS011;71736;38.734;-9.138;2023-11-19T11:53:17;14.80;;;9.20;;
82163;SDS011;71736;38.734;-9.138;2023-11-19T11:58:18;17.20;;;10.50;;
82163;SDS011;71736;38.734;-9.138;2023-11-19T12:00:45;12.80;;;9.40;;
82163;SDS011;71736;38.734;-9.138;2023-11-19T12:03:12;16.30;;;10.80;;
82163;SDS011;71736;38.734;-9.138;2023-11-19T12:05:38;16.30;;;11.10;;
82163;SDS011;71736;38.734;-9.138;2023-11-19T12:08:06;16.60;;;10.10;;
82163;SDS011;71736;38.734;-9.138;2023-11-19T12:10:48;17.10;;;11.40;;
82163;SDS011;71736;38.734;-9.138;2023-11-19T12:13:16;19.00;;;11.60;;
82163;SDS011;71736;38.734;-9.138;2023-11-19T12:18:28;18.30;;;11.70;;
82163;SDS011;71736;38.734;-9.138;2023-11-19T12:20:55;22.10;;;13.40;;
82163;SDS011;71736;38.734;-9.138;2023-11-19T12:23:24;20.00;;;13.20;;
82163;SDS011;71736;38.734;-9.138;2023-11-19T12:25:50;20.70;;;12.80;;
82163;SDS011;71736;38.734;-9.138;2023-11-19T12:28:16;22.80;;;14.20;;
82163;SDS011;71736;38.734;-9.138;2023-11-19T12:30:42;20.20;;;13.30;;
82163;SDS011;71736;38.734;-9.138;2023-11-19T12:33:09;20.10;;;12.90;;
82163;SDS011;71736;38.734;-9.138;2023-11-19T12:35:41;20.20;;;13.00;;
82163;SDS011;71736;38.734;-9.138;2023-11-19T12:38:08;21.40;;;12.40;;
82163;SDS011;71736;38.734;-9.138;2023-11-19T12:42:59;24.50;;;14.50;;
82163;SDS011;71736;38.734;-9.138;2023-11-19T12:45:34;19.90;;;12.40;;
82163;SDS011;71736;38.734;-9.138;2023-11-19T12:48:06;21.50;;;13.90;;
82163;SDS011;71736;38.734;-9.138;2023-11-19T12:53:25;20.20;;;12.40;;
82163;SDS011;71736;38.734;-9.138;2023-11-19T12:55:52;19.50;;;12.10;;
82163;SDS011;71736;38.734;-9.138;2023-11-19T13:01:19;21.60;;;14.10;;
82163;SDS011;71736;38.734;-9.138;2023-11-19T13:03:46;20.20;;;13.90;;
82163;SDS011;71736;38.734;-9.138;2023-11-19T13:06:14;22.00;;;13.90;;
82163;SDS011;71736;38.734;-9.138;2023-11-19T13:08:47;18.50;;;12.70;;
82163;SDS011;71736;38.734;-9.138;2023-11-19T13:11:15;16.20;;;9.20;;
82163;SDS011;71736;38.734;-9.138;2023-11-19T13:13:59;17.00;;;11.30;;
82163;SDS011;71736;38.734;-9.138;2023-11-19T13:16:29;18.40;;;12.20;;
82163;SDS011;71736;38.734;-9.138;2023-11-19T13:18:56;18.70;;;11.70;;
82163;SDS011;71736;38.734;-9.138;2023-11-19T13:21:22;16.40;;;10.90;;
82163;SDS011;71736;38.734;-9.138;2023-11-19T13:23:48;19.30;;;12.40;;
82163;SDS011;71736;38.734;-9.138;2023-11-19T13:26:13;25.40;;;15.40;;
82163;SDS011;71736;38.734;-9.138;2023-11-19T13:28:39;16.70;;;11.70;;
82163;SDS011;71736;38.734;-9.138;2023-11-19T13:31:05;17.30;;;11.20;;
82163;SDS011;71736;38.734;-9.138;2023-11-19T13:33:31;15.70;;;11.30;;
82163;SDS011;71736;38.734;-9.138;2023-11-19T13:35:56;16.50;;;11.70;;
82163;SDS011;71736;38.734;-9.138;2023-11-19T13:38:22;16.20;;;10.70;;
82163;SDS011;71736;38.734;-9.138;2023-11-19T13:40:49;16.70;;;11.10;;
82163;SDS011;71736;38.734;-9.138;2023-11-19T13:43:16;18.00;;;11.70;;
82163;SDS011;71736;38.734;-9.138;2023-11-19T13:45:41;15.40;;;10.50;;
82163;SDS011;71736;38.734;-9.138;2023-11-19T13:48:08;16.00;;;11.00;;
82163;SDS011;71736;38.734;-9.138;2023-11-19T13:50:34;18.90;;;12.40;;
82163;SDS011;71736;38.734;-9.138;2023-11-19T13:53:00;18.70;;;11.00;;
82163;SDS011;71736;38.734;-9.138;2023-11-19T13:55:25;17.00;;;12.30;;
82163;SDS011;71736;38.734;-9.138;2023-11-19T13:57:52;15.40;;;10.30;;
82163;SDS011;71736;38.734;-9.138;2023-11-19T14:00:17;19.20;;;12.60;;
82163;SDS011;71736;38.734;-9.138;2023-11-19T14:02:44;17.70;;;11.40;;
82163;SDS011;71736;38.734;-9.138;2023-11-19T14:05:11;18.50;;;12.40;;
82163;SDS011;71736;38.734;-9.138;2023-11-19T14:07:41;17.50;;;12.30;;
82163;SDS011;71736;38.734;-9.138;2023-11-19T14:10:07;17.50;;;12.10;;
82163;SDS011;71736;38.734;-9.138;2023-11-19T14:12:36;17.30;;;11.70;;
82163;SDS011;71736;38.734;-9.138;2023-11-19T14:15:03;18.60;;;13.10;;
82163;SDS011;71736;38.734;-9.138;2023-11-19T14:17:31;19.90;;;13.30;;
82163;SDS011;71736;38.734;-9.138;2023-11-19T14:19:57;17.80;;;12.40;;
82163;SDS011;71736;38.734;-9.138;2023-11-19T14:22:22;16.50;;;10.60;;
82163;SDS011;71736;38.734;-9.138;2023-11-19T14:24:48;18.10;;;12.00;;
82163;SDS011;71736;38.734;-9.138;2023-11-19T14:27:13;19.40;;;13.90;;
82163;SDS011;71736;38.734;-9.138;2023-11-19T14:29:39;17.40;;;12.40;;
82163;SDS011;71736;38.734;-9.138;2023-11-19T14:32:05;17.10;;;11.70;;
82163;SDS011;71736;38.734;-9.138;2023-11-19T14:34:31;17.90;;;11.00;;
82163;SDS011;71736;38.734;-9.138;2023-11-19T14:36:58;14.40;;;10.10;;
82163;SDS011;71736;38.734;-9.138;2023-11-19T14:39:24;13.40;;;10.10;;
82163;SDS011;71736;38.734;-9.138;2023-11-19T14:41:50;14.80;;;9.50;;
82163;SDS011;71736;38.734;-9.138;2023-11-19T14:44:16;17.70;;;11.10;;
82163;SDS011;71736;38.734;-9.138;2023-11-19T14:46:41;14.30;;;9.80;;
82163;SDS011;71736;38.734;-9.138;2023-11-19T14:49:07;14.30;;;9.50;;
82163;SDS011;71736;38.734;-9.138;2023-11-19T14:51:36;15.90;;;9.90;;
82163;SDS011;71736;38.734;-9.138;2023-11-19T14:54:05;14.10;;;8.00;;
82163;SDS011;71736;38.734;-9.138;2023-11-19T14:56:31;18.90;;;11.50;;
82163;SDS011;71736;38.734;-9.138;2023-11-19T14:58:57;15.40;;;9.30;;